Time;durP1;ratioP1;P1;durP2;ratioP2;P2;SDS_P1;SDS_P2;PMS_P1;PMS_P2;Temp;Humidity;BMP_temperature;BMP_pressure;BME280_temperature;BME280_humidity;BME280_pressure;Samples;Min_cycle;Max_cycle;Signal;HPM_P1;HPM_P2
2022/06/28 00:00:22;;;;;;;9.70;5.32;;;;;;;;;;5008420;28;20448;-78
2022/06/28 00:02:48;;;;;;;7.80;5.63;;;;;;;;;;4991580;28;20058;-78
2022/06/28 00:05:14;;;;;;;7.82;4.78;;;;;;;;;;4991751;28;20026;-78
2022/06/28 00:07:41;;;;;;;8.05;5.63;;;;;;;;;;4991801;28;20038;-79
2022/06/28 00:10:08;;;;;;;8.65;5.07;;;;;;;;;;4992233;28;20034;-78
2022/06/28 00:12:34;;;;;;;7.60;5.10;;;;;;;;;;4992010;28;20035;-78
2022/06/28 00:17:45;;;;;;;7.10;5.22;;;;;;;;;;5005203;28;20515;-78
2022/06/28 00:20:11;;;;;;;21.55;6.32;;;;;;;;;;5011964;28;20496;-78
2022/06/28 00:22:37;;;;;;;9.07;5.45;;;;;;;;;;4999776;28;20057;-79
2022/06/28 00:25:04;;;;;;;8.00;5.22;;;;;;;;;;4992408;28;20113;-80
2022/06/28 00:27:30;;;;;;;8.05;5.10;;;;;;;;;;4992037;28;20121;-78
2022/06/28 00:29:56;;;;;;;8.25;5.35;;;;;;;;;;4990967;28;20030;-78
2022/06/28 00:32:22;;;;;;;11.43;6.00;;;;;;;;;;5000987;28;20431;-78
2022/06/28 00:34:48;;;;;;;7.40;5.15;;;;;;;;;;5001071;28;20043;-78
2022/06/28 00:37:15;;;;;;;7.38;5.75;;;;;;;;;;4991534;28;20085;-79
2022/06/28 00:39:41;;;;;;;7.88;5.35;;;;;;;;;;4992397;28;20030;-79
2022/06/28 00:42:10;;;;;;;8.80;5.40;;;;;;;;;;4991238;28;20531;-79
2022/06/28 00:44:37;;;;;;;8.70;5.47;;;;;;;;;;4991908;28;20134;-80
2022/06/28 00:47:03;;;;;;;8.43;5.45;;;;;;;;;;4999108;28;20037;-80
2022/06/28 00:49:30;;;;;;;8.38;6.20;;;;;;;;;;5012369;28;20400;-81
2022/06/28 00:51:58;;;;;;;7.75;5.25;;;;;;;;;;5000893;28;20052;-79
2022/06/28 00:54:25;;;;;;;8.40;5.45;;;;;;;;;;5006078;28;20029;-79
2022/06/28 00:56:51;;;;;;;8.35;5.63;;;;;;;;;;4997390;28;20437;-79
2022/06/28 00:59:17;;;;;;;7.63;5.40;;;;;;;;;;5015165;28;20100;-80
2022/06/28 01:01:43;;;;;;;7.55;5.40;;;;;;;;;;5002969;28;20022;-80
2022/06/28 01:04:09;;;;;;;9.13;5.50;;;;;;;;;;4995605;28;20026;-78
2022/06/28 01:06:37;;;;;;;7.93;5.63;;;;;;;;;;4994632;28;20022;-78
2022/06/28 01:09:04;;;;;;;10.73;5.70;;;;;;;;;;4995969;28;20602;-79
2022/06/28 01:11:31;;;;;;;9.23;5.55;;;;;;;;;;4994182;28;20084;-78
2022/06/28 01:14:02;;;;;;;7.32;5.35;;;;;;;;;;4994933;28;20022;-80
2022/06/28 01:16:28;;;;;;;10.25;5.60;;;;;;;;;;4996933;28;20554;-79
2022/06/28 01:18:55;;;;;;;7.55;5.35;;;;;;;;;;5004217;28;20026;-77
2022/06/28 01:21:21;;;;;;;6.18;4.93;;;;;;;;;;4993699;28;20457;-79
2022/06/28 01:23:47;;;;;;;6.28;4.63;;;;;;;;;;5007785;28;20037;-78
2022/06/28 01:26:15;;;;;;;8.65;5.10;;;;;;;;;;5003268;28;20022;-79
2022/06/28 01:28:42;;;;;;;7.03;5.05;;;;;;;;;;4975931;28;20453;-78
2022/06/28 01:31:11;;;;;;;6.38;4.47;;;;;;;;;;4982522;28;20591;-78
2022/06/28 01:33:38;;;;;;;7.75;5.03;;;;;;;;;;5002691;28;20089;-78
2022/06/28 01:36:05;;;;;;;7.32;4.75;;;;;;;;;;4994414;28;20101;-79
2022/06/28 01:38:33;;;;;;;6.07;4.80;;;;;;;;;;4992529;28;20173;-79
2022/06/28 01:40:59;;;;;;;6.75;4.80;;;;;;;;;;4994771;28;20073;-78
2022/06/28 01:43:26;;;;;;;7.95;5.60;;;;;;;;;;4994191;28;20037;-79
2022/06/28 01:45:53;;;;;;;6.82;5.07;;;;;;;;;;4994960;28;20040;-78
2022/06/28 01:48:19;;;;;;;8.00;5.53;;;;;;;;;;5005724;28;20026;-79
2022/06/28 01:50:46;;;;;;;9.50;6.13;;;;;;;;;;4995436;28;20018;-79
2022/06/28 01:53:12;;;;;;;7.07;5.90;;;;;;;;;;5008026;28;20096;-80
2022/06/28 01:55:38;;;;;;;7.22;5.68;;;;;;;;;;4994871;28;20053;-78
2022/06/28 01:58:05;;;;;;;8.20;6.50;;;;;;;;;;5008593;28;20109;-79
2022/06/28 02:00:31;;;;;;;6.95;5.93;;;;;;;;;;4991808;28;20026;-78
2022/06/28 02:02:57;;;;;;;7.28;6.25;;;;;;;;;;5005179;28;20080;-79
2022/06/28 02:05:24;;;;;;;6.93;5.78;;;;;;;;;;5014950;28;20048;-79
2022/06/28 02:07:50;;;;;;;7.75;6.35;;;;;;;;;;5010966;28;20443;-77
2022/06/28 02:10:17;;;;;;;7.25;5.70;;;;;;;;;;4999792;28;20687;-78
2022/06/28 02:12:43;;;;;;;7.53;5.78;;;;;;;;;;5005396;28;20065;-78
2022/06/28 02:15:10;;;;;;;9.40;7.05;;;;;;;;;;4994132;28;20026;-78
2022/06/28 02:17:36;;;;;;;7.80;6.13;;;;;;;;;;5005158;28;20026;-77
2022/06/28 02:20:02;;;;;;;7.30;5.50;;;;;;;;;;4993783;28;20053;-78
2022/06/28 02:22:28;;;;;;;7.30;5.82;;;;;;;;;;4999575;28;20034;-78
2022/06/28 02:24:54;;;;;;;7.68;5.65;;;;;;;;;;5013836;28;20044;-79
2022/06/28 02:27:20;;;;;;;7.57;5.35;;;;;;;;;;5011836;28;20061;-77
2022/06/28 02:29:47;;;;;;;7.65;5.57;;;;;;;;;;4996884;28;20026;-78
2022/06/28 02:32:13;;;;;;;8.20;4.78;;;;;;;;;;4996180;28;20018;-79
2022/06/28 02:40:22;;;;;;;6.63;4.65;;;;;;;;;;4973844;28;20038;-78
2022/06/28 02:42:51;;;;;;;6.10;4.60;;;;;;;;;;4992115;28;20040;-78
2022/06/28 02:45:17;;;;;;;6.82;4.70;;;;;;;;;;5012992;28;20068;-78
2022/06/28 02:47:43;;;;;;;6.85;4.57;;;;;;;;;;5009509;28;20373;-78
2022/06/28 02:50:09;;;;;;;7.38;4.70;;;;;;;;;;4993340;28;20053;-78
2022/06/28 02:52:36;;;;;;;6.60;4.40;;;;;;;;;;4999743;28;20036;-78
2022/06/28 02:55:02;;;;;;;5.97;4.72;;;;;;;;;;5012666;28;20022;-78
2022/06/28 02:57:28;;;;;;;6.30;4.22;;;;;;;;;;5010318;28;20041;-78
2022/06/28 02:59:54;;;;;;;5.97;3.75;;;;;;;;;;4998656;28;20040;-77
2022/06/28 03:02:20;;;;;;;6.13;3.70;;;;;;;;;;4991728;28;20480;-78
2022/06/28 03:04:46;;;;;;;5.70;3.78;;;;;;;;;;4992990;28;20396;-76
2022/06/28 03:07:12;;;;;;;7.50;4.35;;;;;;;;;;4997794;28;20029;-77
2022/06/28 03:09:38;;;;;;;5.72;3.90;;;;;;;;;;5003653;28;20057;-79
2022/06/28 03:12:06;;;;;;;5.90;3.92;;;;;;;;;;4996001;28;20109;-78
2022/06/28 03:14:32;;;;;;;5.90;4.10;;;;;;;;;;4991017;28;20022;-78
2022/06/28 03:16:58;;;;;;;5.57;4.10;;;;;;;;;;4992997;28;20034;-78
2022/06/28 03:19:24;;;;;;;6.03;3.92;;;;;;;;;;4989694;28;20042;-77
2022/06/28 03:21:50;;;;;;;6.15;4.07;;;;;;;;;;4994957;28;20034;-77
2022/06/28 03:24:16;;;;;;;7.53;3.97;;;;;;;;;;5012249;28;20080;-77
2022/06/28 03:26:42;;;;;;;6.57;3.83;;;;;;;;;;4999067;28;20551;-78
2022/06/28 03:29:09;;;;;;;5.97;4.03;;;;;;;;;;4995470;28;20040;-77
2022/06/28 03:31:35;;;;;;;6.18;4.43;;;;;;;;;;4994303;28;20436;-78
2022/06/28 03:34:01;;;;;;;5.82;3.63;;;;;;;;;;5011735;28;20037;-77
2022/06/28 03:36:27;;;;;;;7.15;4.07;;;;;;;;;;5012179;28;20080;-77
2022/06/28 03:38:53;;;;;;;6.13;4.25;;;;;;;;;;4998842;28;20109;-78
2022/06/28 03:41:22;;;;;;;6.57;4.30;;;;;;;;;;4995554;28;20109;-78
2022/06/28 03:43:52;;;;;;;5.70;4.05;;;;;;;;;;5004951;28;20555;-78
2022/06/28 03:46:19;;;;;;;6.13;3.90;;;;;;;;;;4991640;28;20030;-78
2022/06/28 03:48:45;;;;;;;7.10;4.70;;;;;;;;;;4995699;28;20481;-78
2022/06/28 03:51:12;;;;;;;6.20;4.28;;;;;;;;;;4987837;28;20489;-76
2022/06/28 03:53:38;;;;;;;13.48;6.15;;;;;;;;;;4988915;28;20064;-77
2022/06/28 03:56:05;;;;;;;6.72;4.38;;;;;;;;;;4992838;28;20423;-77
2022/06/28 03:58:31;;;;;;;7.05;4.63;;;;;;;;;;4999876;28;20397;-78
2022/06/28 04:00:57;;;;;;;6.43;4.90;;;;;;;;;;4989339;28;20026;-77
2022/06/28 04:03:23;;;;;;;6.72;4.53;;;;;;;;;;4994088;28;20100;-76
2022/06/28 04:05:49;;;;;;;6.22;4.45;;;;;;;;;;4991792;28;20507;-78
2022/06/28 04:08:16;;;;;;;7.65;4.70;;;;;;;;;;5002176;28;20025;-77
2022/06/28 04:10:42;;;;;;;5.85;4.40;;;;;;;;;;4990793;28;20030;-78
2022/06/28 04:13:08;;;;;;;7.05;4.10;;;;;;;;;;4991442;28;20062;-77
2022/06/28 04:15:35;;;;;;;6.20;4.00;;;;;;;;;;4992128;28;20587;-78
2022/06/28 04:18:01;;;;;;;9.20;4.32;;;;;;;;;;4989657;28;20062;-77
2022/06/28 04:20:27;;;;;;;6.45;3.70;;;;;;;;;;4989215;28;20034;-77
2022/06/28 04:22:53;;;;;;;5.20;3.17;;;;;;;;;;4990439;28;20027;-77
2022/06/28 04:25:19;;;;;;;6.43;3.72;;;;;;;;;;4990311;28;20025;-77
2022/06/28 04:27:45;;;;;;;5.35;3.63;;;;;;;;;;4997260;28;20108;-77
2022/06/28 04:30:12;;;;;;;5.75;3.42;;;;;;;;;;4991833;28;20030;-77
2022/06/28 04:32:38;;;;;;;5.13;3.40;;;;;;;;;;4993000;28;20092;-78
2022/06/28 04:35:04;;;;;;;5.88;3.03;;;;;;;;;;4995924;28;20095;-78
2022/06/28 04:37:30;;;;;;;4.93;3.63;;;;;;;;;;5003751;28;20034;-77
2022/06/28 04:39:56;;;;;;;5.43;3.42;;;;;;;;;;5006293;28;20030;-78
2022/06/28 04:42:22;;;;;;;5.10;2.83;;;;;;;;;;4993718;28;20061;-77
2022/06/28 04:44:48;;;;;;;5.22;3.40;;;;;;;;;;4995622;28;20378;-78
2022/06/28 04:47:14;;;;;;;4.90;3.03;;;;;;;;;;5002059;28;20052;-78
2022/06/28 04:49:40;;;;;;;4.75;3.25;;;;;;;;;;5010508;28;20026;-78
2022/06/28 04:52:07;;;;;;;4.93;3.20;;;;;;;;;;4995542;28;20065;-79
2022/06/28 04:54:33;;;;;;;6.90;3.40;;;;;;;;;;4981705;28;20030;-77
2022/06/28 04:56:59;;;;;;;5.35;3.17;;;;;;;;;;5003754;28;21165;-78
2022/06/28 04:59:25;;;;;;;4.85;2.92;;;;;;;;;;5015066;28;20037;-78
2022/06/28 05:01:51;;;;;;;5.63;3.50;;;;;;;;;;5008272;28;20492;-78
2022/06/28 05:04:17;;;;;;;4.95;3.05;;;;;;;;;;5014736;28;20030;-78
2022/06/28 05:06:43;;;;;;;4.93;3.35;;;;;;;;;;5013132;28;20031;-78
2022/06/28 05:09:09;;;;;;;5.90;2.85;;;;;;;;;;5014862;28;20022;-78
2022/06/28 05:11:35;;;;;;;5.10;2.90;;;;;;;;;;4998865;28;20109;-78
2022/06/28 05:14:01;;;;;;;5.45;3.10;;;;;;;;;;4987561;28;20126;-77
2022/06/28 05:16:27;;;;;;;5.65;3.55;;;;;;;;;;4975622;28;20027;-79
2022/06/28 05:18:53;;;;;;;5.15;3.30;;;;;;;;;;5014538;28;20026;-77
2022/06/28 05:21:19;;;;;;;5.18;3.55;;;;;;;;;;5002517;28;20105;-77
2022/06/28 05:23:45;;;;;;;5.28;3.58;;;;;;;;;;4995116;28;20428;-76
2022/06/28 05:26:11;;;;;;;5.13;3.30;;;;;;;;;;4994715;28;20034;-78
2022/06/28 05:28:37;;;;;;;5.45;3.30;;;;;;;;;;4995439;28;20109;-77
2022/06/28 05:31:03;;;;;;;6.97;3.45;;;;;;;;;;4994671;28;20089;-76
2022/06/28 05:33:30;;;;;;;6.22;3.22;;;;;;;;;;4994856;28;20433;-77
2022/06/28 05:35:56;;;;;;;5.70;3.25;;;;;;;;;;4992319;28;20129;-77
2022/06/28 05:38:22;;;;;;;6.13;3.60;;;;;;;;;;4992735;28;20076;-77
2022/06/28 05:40:48;;;;;;;8.15;4.30;;;;;;;;;;5008527;28;20026;-77
2022/06/28 05:43:15;;;;;;;5.80;4.30;;;;;;;;;;5009687;28;20058;-77
2022/06/28 05:45:41;;;;;;;5.15;3.28;;;;;;;;;;4999787;28;20030;-76
2022/06/28 05:48:07;;;;;;;4.57;2.70;;;;;;;;;;4996572;28;20022;-76
2022/06/28 05:50:33;;;;;;;4.80;2.63;;;;;;;;;;4990869;28;20057;-76
2022/06/28 05:52:59;;;;;;;5.75;3.22;;;;;;;;;;4999189;28;20058;-77
2022/06/28 05:55:25;;;;;;;4.65;2.80;;;;;;;;;;4999201;28;20463;-76
2022/06/28 05:57:51;;;;;;;6.65;3.10;;;;;;;;;;5015723;28;20037;-77
2022/06/28 06:00:18;;;;;;;5.20;3.03;;;;;;;;;;5015382;28;20057;-78
2022/06/28 06:02:44;;;;;;;4.63;2.88;;;;;;;;;;4994400;28;20077;-77
2022/06/28 06:05:11;;;;;;;4.88;2.70;;;;;;;;;;5007623;28;20148;-77
2022/06/28 06:07:37;;;;;;;5.13;3.03;;;;;;;;;;4994073;28;20037;-78
2022/06/28 06:10:03;;;;;;;5.50;3.38;;;;;;;;;;4994106;28;20030;-77
2022/06/28 06:12:30;;;;;;;6.25;3.65;;;;;;;;;;4996661;28;20116;-77
2022/06/28 06:14:58;;;;;;;4.55;2.75;;;;;;;;;;4997151;28;20519;-77
2022/06/28 06:17:24;;;;;;;4.70;2.85;;;;;;;;;;5008530;28;20029;-76
2022/06/28 06:19:50;;;;;;;6.03;2.72;;;;;;;;;;5013711;28;20389;-77
2022/06/28 06:22:16;;;;;;;5.35;2.97;;;;;;;;;;5013926;28;20030;-78
2022/06/28 06:24:42;;;;;;;6.38;4.13;;;;;;;;;;4998005;28;20035;-77
2022/06/28 06:27:08;;;;;;;4.82;3.05;;;;;;;;;;5011242;28;20140;-77
2022/06/28 06:29:35;;;;;;;5.88;3.10;;;;;;;;;;5013654;28;20033;-77
2022/06/28 06:32:01;;;;;;;4.53;2.72;;;;;;;;;;5013183;28;20034;-77
2022/06/28 06:34:27;;;;;;;4.03;2.53;;;;;;;;;;5011474;28;20042;-79
2022/06/28 06:36:53;;;;;;;6.72;3.00;;;;;;;;;;4996056;28;20548;-77
2022/06/28 06:39:19;;;;;;;9.48;3.65;;;;;;;;;;5008071;28;20037;-77
2022/06/28 06:41:47;;;;;;;4.95;2.80;;;;;;;;;;5012570;28;20030;-76
2022/06/28 06:44:13;;;;;;;5.50;2.83;;;;;;;;;;4986833;28;20033;-77
2022/06/28 06:46:39;;;;;;;5.55;2.53;;;;;;;;;;5014134;28;20041;-75
2022/06/28 06:49:05;;;;;;;5.40;2.90;;;;;;;;;;5014022;28;20026;-76
2022/06/28 06:51:31;;;;;;;4.70;2.72;;;;;;;;;;5013704;28;20053;-76
2022/06/28 06:53:58;;;;;;;5.38;2.80;;;;;;;;;;5009765;28;20053;-77
2022/06/28 06:56:24;;;;;;;5.07;2.80;;;;;;;;;;5012860;28;20523;-77
2022/06/28 06:58:50;;;;;;;5.70;3.20;;;;;;;;;;5013155;28;20456;-77
2022/06/28 07:01:16;;;;;;;6.68;3.08;;;;;;;;;;5012580;28;20030;-77
2022/06/28 07:03:44;;;;;;;6.05;3.25;;;;;;;;;;5002278;28;20033;-78
2022/06/28 07:06:14;;;;;;;6.00;2.90;;;;;;;;;;5013076;28;20121;-78
2022/06/28 07:08:40;;;;;;;4.13;2.55;;;;;;;;;;5012971;28;20075;-76
2022/06/28 07:11:08;;;;;;;5.57;2.80;;;;;;;;;;5012754;28;20037;-77
2022/06/28 07:13:34;;;;;;;5.43;2.80;;;;;;;;;;5008026;28;20037;-79
2022/06/28 07:16:01;;;;;;;5.55;2.80;;;;;;;;;;4991767;28;20459;-76
2022/06/28 07:18:28;;;;;;;4.85;2.67;;;;;;;;;;4992437;28;20148;-77
2022/06/28 07:20:55;;;;;;;5.38;2.83;;;;;;;;;;4992700;28;20108;-76
2022/06/28 07:23:21;;;;;;;5.57;2.97;;;;;;;;;;4996698;28;20022;-76
2022/06/28 07:25:47;;;;;;;5.25;2.83;;;;;;;;;;5001659;28;20399;-78
2022/06/28 07:28:13;;;;;;;5.80;2.60;;;;;;;;;;5012319;28;20393;-78
2022/06/28 07:30:39;;;;;;;4.70;2.90;;;;;;;;;;5012514;28;20032;-77
2022/06/28 07:33:05;;;;;;;4.65;2.58;;;;;;;;;;5009077;28;20373;-78
2022/06/28 07:35:31;;;;;;;4.30;2.42;;;;;;;;;;5012121;28;20416;-77
2022/06/28 07:37:58;;;;;;;5.38;2.80;;;;;;;;;;5012237;28;20476;-78
2022/06/28 07:40:24;;;;;;;4.43;2.63;;;;;;;;;;5012368;28;20416;-77
2022/06/28 07:42:50;;;;;;;5.20;3.30;;;;;;;;;;5008938;28;20468;-77
2022/06/28 07:45:16;;;;;;;4.57;2.85;;;;;;;;;;5011939;28;20021;-78
2022/06/28 07:47:47;;;;;;;6.07;3.20;;;;;;;;;;5002708;28;20077;-77
2022/06/28 07:53:00;;;;;;;4.55;2.90;;;;;;;;;;5002360;28;20093;-77
2022/06/28 07:55:26;;;;;;;5.03;3.10;;;;;;;;;;5012002;28;20022;-77
2022/06/28 07:57:52;;;;;;;4.55;2.88;;;;;;;;;;5009973;28;20022;-77
2022/06/28 08:00:19;;;;;;;5.03;3.40;;;;;;;;;;5011663;28;20030;-76
2022/06/28 08:02:45;;;;;;;4.32;2.75;;;;;;;;;;5011753;28;20434;-77
2022/06/28 08:05:12;;;;;;;4.70;3.10;;;;;;;;;;5008201;28;20031;-77
2022/06/28 08:07:38;;;;;;;5.28;2.88;;;;;;;;;;5011214;28;20108;-78
2022/06/28 08:10:04;;;;;;;5.00;2.88;;;;;;;;;;5010378;28;20477;-78
2022/06/28 08:12:30;;;;;;;5.03;3.33;;;;;;;;;;5011598;28;20032;-77
2022/06/28 08:14:56;;;;;;;5.90;3.08;;;;;;;;;;4997721;28;20030;-77
2022/06/28 08:17:22;;;;;;;5.05;3.08;;;;;;;;;;5007229;28;20040;-78
2022/06/28 08:19:48;;;;;;;5.50;3.47;;;;;;;;;;5001838;28;20121;-78
2022/06/28 08:22:14;;;;;;;5.80;3.58;;;;;;;;;;4992024;28;20030;-77
2022/06/28 08:24:41;;;;;;;5.35;3.22;;;;;;;;;;4991680;28;20029;-77
2022/06/28 08:27:07;;;;;;;4.63;3.33;;;;;;;;;;5004856;28;20029;-77
2022/06/28 08:29:34;;;;;;;4.88;3.50;;;;;;;;;;5011784;28;20109;-77
2022/06/28 08:32:00;;;;;;;5.43;3.47;;;;;;;;;;5011251;28;20392;-77
2022/06/28 08:34:26;;;;;;;5.05;3.47;;;;;;;;;;4990374;28;20073;-77
2022/06/28 08:36:52;;;;;;;5.47;3.13;;;;;;;;;;4983426;28;20493;-78
2022/06/28 08:39:19;;;;;;;5.65;3.65;;;;;;;;;;4991684;28;20491;-77
2022/06/28 08:41:46;;;;;;;5.10;3.38;;;;;;;;;;4991769;28;20096;-78
2022/06/28 08:44:13;;;;;;;5.90;3.33;;;;;;;;;;4991710;28;20404;-77
2022/06/28 08:46:39;;;;;;;5.38;3.28;;;;;;;;;;5000278;28;20056;-77
2022/06/28 08:49:18;;;;;;;4.88;3.38;;;;;;;;;;4997986;28;20015;-77
2022/06/28 08:51:45;;;;;;;4.90;3.33;;;;;;;;;;4991611;28;20062;-79
2022/06/28 08:54:12;;;;;;;6.85;3.50;;;;;;;;;;4997292;28;20045;-77
2022/06/28 08:56:38;;;;;;;6.00;3.35;;;;;;;;;;5011087;28;20026;-77
2022/06/28 08:59:06;;;;;;;5.13;3.80;;;;;;;;;;5011167;28;20088;-77
2022/06/28 09:01:32;;;;;;;6.57;3.95;;;;;;;;;;4994650;28;20026;-77
2022/06/28 09:04:00;;;;;;;6.80;3.97;;;;;;;;;;5004249;28;20116;-78
2022/06/28 09:06:26;;;;;;;6.00;3.72;;;;;;;;;;4991314;28;20026;-77
2022/06/28 09:08:52;;;;;;;5.32;3.50;;;;;;;;;;4991615;28;20045;-77
2022/06/28 09:11:18;;;;;;;6.68;3.40;;;;;;;;;;4996684;28;20018;-77
2022/06/28 09:13:44;;;;;;;6.25;3.50;;;;;;;;;;5011238;28;20037;-77
2022/06/28 09:16:11;;;;;;;5.93;3.45;;;;;;;;;;5008783;28;20025;-77
2022/06/28 09:18:37;;;;;;;8.60;3.90;;;;;;;;;;5011839;28;20030;-76
2022/06/28 09:21:06;;;;;;;4.90;3.40;;;;;;;;;;5009097;28;20033;-76
2022/06/28 09:23:34;;;;;;;6.00;3.10;;;;;;;;;;4994918;28;20037;-77
2022/06/28 09:26:05;;;;;;;4.22;3.05;;;;;;;;;;4994881;28;20041;-76
2022/06/28 09:28:32;;;;;;;7.63;3.58;;;;;;;;;;4994952;28;20026;-77
2022/06/28 09:31:18;;;;;;;4.10;2.78;;;;;;;;;;5001424;28;20022;-77
2022/06/28 09:33:45;;;;;;;4.63;2.90;;;;;;;;;;5007380;28;20049;-77
2022/06/28 09:36:12;;;;;;;4.95;3.22;;;;;;;;;;4997392;28;20026;-76
2022/06/28 09:38:39;;;;;;;5.22;3.00;;;;;;;;;;4999019;28;20058;-77
2022/06/28 09:41:05;;;;;;;7.97;3.35;;;;;;;;;;4994677;28;20085;-77
2022/06/28 09:43:32;;;;;;;5.70;2.70;;;;;;;;;;4994470;28;20524;-77
2022/06/28 09:45:59;;;;;;;4.60;2.83;;;;;;;;;;4994428;28;20551;-77
2022/06/28 09:48:25;;;;;;;5.18;3.10;;;;;;;;;;5006621;28;20032;-78
2022/06/28 09:50:57;;;;;;;5.07;3.03;;;;;;;;;;5013918;28;20125;-76
2022/06/28 09:53:25;;;;;;;5.13;3.17;;;;;;;;;;5013921;28;20093;-76
2022/06/28 09:55:52;;;;;;;4.80;3.22;;;;;;;;;;5013986;28;20102;-78
2022/06/28 09:58:19;;;;;;;5.15;3.08;;;;;;;;;;5010668;28;20497;-77
2022/06/28 10:00:45;;;;;;;5.03;2.70;;;;;;;;;;5004358;28;20485;-78
2022/06/28 10:03:12;;;;;;;4.15;2.70;;;;;;;;;;4994357;28;20019;-77
2022/06/28 10:05:38;;;;;;;4.50;2.42;;;;;;;;;;4993560;28;20073;-76
2022/06/28 10:08:04;;;;;;;5.38;2.78;;;;;;;;;;5009471;28;20105;-77
2022/06/28 10:10:31;;;;;;;4.40;2.50;;;;;;;;;;5012378;28;20068;-78
2022/06/28 10:15:51;;;;;;;4.82;3.05;;;;;;;;;;5001412;28;20034;-77
2022/06/28 10:18:19;;;;;;;6.83;3.00;;;;;;;;;;5012287;28;20018;-77
2022/06/28 10:20:46;;;;;;;4.40;2.88;;;;;;;;;;5013530;28;20026;-77
2022/06/28 10:23:25;;;;;;;5.53;3.00;;;;;;;;;;5013179;28;20013;-77
2022/06/28 10:26:11;;;;;;;4.95;2.88;;;;;;;;;;5013234;28;20026;-79
2022/06/28 10:28:40;;;;;;;4.95;2.95;;;;;;;;;;5009015;28;20420;-77
2022/06/28 10:31:24;;;;;;;6.15;2.67;;;;;;;;;;5011936;28;20026;-77
2022/06/28 10:33:51;;;;;;;5.85;2.80;;;;;;;;;;5012010;28;20022;-77
2022/06/28 10:36:18;;;;;;;4.43;2.90;;;;;;;;;;5002595;28;20037;-77
2022/06/28 10:39:03;;;;;;;5.07;3.22;;;;;;;;;;4998072;28;20037;-78
2022/06/28 10:41:40;;;;;;;5.63;3.20;;;;;;;;;;4996777;28;20030;-77
2022/06/28 10:44:10;;;;;;;5.40;3.72;;;;;;;;;;5011176;28;20495;-77
2022/06/28 10:46:37;;;;;;;5.15;2.90;;;;;;;;;;5011518;28;20029;-77
2022/06/28 10:49:05;;;;;;;5.38;2.83;;;;;;;;;;5012902;28;20026;-77
2022/06/28 10:51:31;;;;;;;4.50;2.80;;;;;;;;;;5013417;28;20029;-77
2022/06/28 10:53:57;;;;;;;4.60;2.80;;;;;;;;;;5010294;28;20254;-77
2022/06/28 10:56:26;;;;;;;4.53;2.53;;;;;;;;;;5011469;28;20088;-77
2022/06/28 10:58:55;;;;;;;6.45;2.92;;;;;;;;;;5011812;28;20057;-78
2022/06/28 11:01:47;;;;;;;5.72;2.50;;;;;;;;;;5012634;28;20613;-77
2022/06/28 11:04:19;;;;;;;4.75;2.83;;;;;;;;;;5009431;28;20040;-77
2022/06/28 11:06:46;;;;;;;4.28;2.03;;;;;;;;;;4992502;28;20471;-79
2022/06/28 11:09:24;;;;;;;4.38;2.45;;;;;;;;;;5004029;28;20034;-78
2022/06/28 11:12:05;;;;;;;5.78;2.20;;;;;;;;;;5011047;28;20054;-77
2022/06/28 11:14:33;;;;;;;5.13;2.30;;;;;;;;;;5011249;28;20028;-77
2022/06/28 11:16:59;;;;;;;5.15;2.78;;;;;;;;;;5013103;28;20096;-76
2022/06/28 11:19:27;;;;;;;4.30;2.80;;;;;;;;;;4998254;28;20026;-77
2022/06/28 11:21:56;;;;;;;4.38;2.67;;;;;;;;;;4992418;28;20030;-77
2022/06/28 11:24:23;;;;;;;6.70;2.58;;;;;;;;;;4994022;28;20030;-75
2022/06/28 11:29:34;;;;;;;4.70;2.35;;;;;;;;;;5010939;28;20451;-76
2022/06/28 11:32:00;;;;;;;6.38;3.00;;;;;;;;;;5006718;28;20075;-77
2022/06/28 11:34:27;;;;;;;6.43;2.70;;;;;;;;;;5011981;28;20040;-77
2022/06/28 11:36:56;;;;;;;4.40;2.10;;;;;;;;;;5009480;28;20026;-77
2022/06/28 11:39:23;;;;;;;5.85;2.22;;;;;;;;;;5012009;28;20081;-77
2022/06/28 11:41:52;;;;;;;5.40;1.95;;;;;;;;;;5009747;28;20518;-77
2022/06/28 11:44:19;;;;;;;4.93;2.03;;;;;;;;;;5012271;28;20034;-77
2022/06/28 11:46:46;;;;;;;4.60;2.60;;;;;;;;;;5011850;28;20030;-77
2022/06/28 11:49:12;;;;;;;4.13;1.90;;;;;;;;;;5008360;28;20077;-76
2022/06/28 11:51:41;;;;;;;4.20;2.05;;;;;;;;;;4993177;28;20029;-77
2022/06/28 11:54:07;;;;;;;5.50;2.35;;;;;;;;;;5012065;28;20477;-77
2022/06/28 11:56:43;;;;;;;5.53;2.47;;;;;;;;;;5003070;28;20130;-76
2022/06/28 11:59:09;;;;;;;4.45;2.20;;;;;;;;;;4972835;28;20512;-78
2022/06/28 12:01:39;;;;;;;4.63;2.13;;;;;;;;;;4987213;28;20038;-77
2022/06/28 12:04:06;;;;;;;5.13;2.10;;;;;;;;;;5011027;28;20083;-77
2022/06/28 12:06:36;;;;;;;5.13;2.30;;;;;;;;;;5010149;28;20037;-77
2022/06/28 12:09:06;;;;;;;4.72;1.98;;;;;;;;;;5011688;28;20033;-77
2022/06/28 12:11:36;;;;;;;4.85;2.00;;;;;;;;;;5004183;28;20105;-76
2022/06/28 12:14:11;;;;;;;3.92;2.00;;;;;;;;;;4991972;28;20177;-76
2022/06/28 12:16:42;;;;;;;4.60;2.33;;;;;;;;;;5002891;28;20025;-76
2022/06/28 12:19:10;;;;;;;3.83;2.10;;;;;;;;;;4996370;28;20030;-77
2022/06/28 12:21:36;;;;;;;4.50;2.08;;;;;;;;;;4984576;28;20041;-77
2022/06/28 12:24:03;;;;;;;4.57;2.38;;;;;;;;;;5011566;28;20103;-77
2022/06/28 12:26:45;;;;;;;5.35;2.30;;;;;;;;;;5009857;28;20034;-77
2022/06/28 12:29:12;;;;;;;4.90;2.55;;;;;;;;;;5005916;28;20022;-78
2022/06/28 12:31:39;;;;;;;4.22;2.05;;;;;;;;;;5006435;28;20034;-77
2022/06/28 12:34:09;;;;;;;4.85;2.13;;;;;;;;;;5011421;28;20394;-77
2022/06/28 12:36:35;;;;;;;5.57;2.22;;;;;;;;;;4990520;28;20045;-77
2022/06/28 12:39:01;;;;;;;4.30;2.33;;;;;;;;;;4990594;28;20030;-77
2022/06/28 12:41:27;;;;;;;4.88;2.38;;;;;;;;;;4995114;28;20026;-77
2022/06/28 12:43:53;;;;;;;4.78;1.92;;;;;;;;;;4993259;28;20081;-77
2022/06/28 12:46:19;;;;;;;5.32;2.20;;;;;;;;;;4991607;28;20445;-78
2022/06/28 12:48:45;;;;;;;4.25;2.22;;;;;;;;;;5010300;28;20109;-76
2022/06/28 12:51:11;;;;;;;5.25;2.25;;;;;;;;;;5011210;28;20420;-77
2022/06/28 12:53:37;;;;;;;4.90;2.30;;;;;;;;;;5012409;28;20049;-77
2022/06/28 12:56:04;;;;;;;5.22;2.42;;;;;;;;;;5011594;28;20069;-78
2022/06/28 12:58:30;;;;;;;4.78;2.40;;;;;;;;;;4994902;28;20113;-77
2022/06/28 13:00:56;;;;;;;4.55;2.40;;;;;;;;;;4995417;28;20093;-76
2022/06/28 13:03:22;;;;;;;5.18;2.20;;;;;;;;;;4993184;28;20045;-77
2022/06/28 13:05:48;;;;;;;4.22;2.17;;;;;;;;;;5014569;28;20030;-78
2022/06/28 13:08:14;;;;;;;4.68;2.20;;;;;;;;;;5014979;28;20033;-77
2022/06/28 13:10:40;;;;;;;6.53;2.40;;;;;;;;;;5014577;28;20022;-78
2022/06/28 13:13:07;;;;;;;5.97;2.20;;;;;;;;;;5014779;28;20021;-78
2022/06/28 13:15:34;;;;;;;4.55;2.10;;;;;;;;;;5006188;28;20019;-77
2022/06/28 13:18:00;;;;;;;3.97;2.35;;;;;;;;;;4995018;28;20018;-77
2022/06/28 13:20:26;;;;;;;4.50;2.28;;;;;;;;;;4995030;28;20049;-76
2022/06/28 13:22:52;;;;;;;4.85;2.20;;;;;;;;;;4994970;28;20030;-77
2022/06/28 13:25:18;;;;;;;4.78;2.30;;;;;;;;;;4994227;28;20096;-77
2022/06/28 13:27:44;;;;;;;5.50;2.47;;;;;;;;;;4994826;28;20038;-79
2022/06/28 13:30:11;;;;;;;4.13;2.33;;;;;;;;;;4995168;28;20489;-81
2022/06/28 13:32:37;;;;;;;4.75;2.38;;;;;;;;;;4997609;28;20030;-79
2022/06/28 13:35:04;;;;;;;5.38;2.33;;;;;;;;;;4995936;28;20057;-79
2022/06/28 13:37:30;;;;;;;4.15;2.10;;;;;;;;;;4996054;28;20122;-78
2022/06/28 13:39:57;;;;;;;5.43;2.50;;;;;;;;;;4995980;28;20023;-79
2022/06/28 13:42:23;;;;;;;4.25;2.20;;;;;;;;;;5007266;28;20038;-79
2022/06/28 13:44:49;;;;;;;5.18;2.25;;;;;;;;;;5012182;28;20040;-79
2022/06/28 13:47:15;;;;;;;4.82;2.22;;;;;;;;;;5007147;28;20052;-77
2022/06/28 13:49:42;;;;;;;4.63;2.33;;;;;;;;;;5015301;28;20022;-79
2022/06/28 13:52:09;;;;;;;5.57;2.28;;;;;;;;;;5003036;28;20109;-78
2022/06/28 13:54:35;;;;;;;5.00;2.17;;;;;;;;;;4995314;28;20125;-78
2022/06/28 13:57:01;;;;;;;5.13;2.30;;;;;;;;;;4999444;28;20033;-79
2022/06/28 13:59:27;;;;;;;4.57;2.50;;;;;;;;;;5005935;28;20026;-78
2022/06/28 14:01:53;;;;;;;5.47;2.30;;;;;;;;;;5003993;28;20037;-78
2022/06/28 14:04:19;;;;;;;4.82;2.15;;;;;;;;;;5013666;28;20433;-78
2022/06/28 14:06:45;;;;;;;5.72;2.00;;;;;;;;;;5011439;28;20026;-79
2022/06/28 14:09:11;;;;;;;4.68;2.25;;;;;;;;;;5014087;28;20653;-75
2022/06/28 14:11:37;;;;;;;4.53;2.20;;;;;;;;;;5010860;28;20033;-76
2022/06/28 14:14:03;;;;;;;4.20;2.35;;;;;;;;;;5007554;28;20077;-77
2022/06/28 14:16:29;;;;;;;8.43;3.10;;;;;;;;;;5000643;28;20038;-76
2022/06/28 14:18:55;;;;;;;6.45;2.47;;;;;;;;;;4993917;28;20030;-77
2022/06/28 14:21:21;;;;;;;4.63;2.10;;;;;;;;;;4992603;28;20499;-76
2022/06/28 14:23:47;;;;;;;4.95;2.30;;;;;;;;;;4993882;28;20030;-76
2022/06/28 14:26:15;;;;;;;5.43;2.60;;;;;;;;;;4993313;28;20037;-77
2022/06/28 14:28:41;;;;;;;5.75;2.55;;;;;;;;;;4993776;28;20015;-77
2022/06/28 14:31:07;;;;;;;4.22;2.40;;;;;;;;;;4995364;28;20030;-78
2022/06/28 14:33:33;;;;;;;5.25;2.30;;;;;;;;;;5013373;28;20022;-77
2022/06/28 14:36:00;;;;;;;4.22;2.53;;;;;;;;;;5013030;28;20113;-77
2022/06/28 14:38:26;;;;;;;4.75;2.40;;;;;;;;;;5013230;28;20384;-77
2022/06/28 14:40:52;;;;;;;4.60;2.55;;;;;;;;;;4993377;28;20057;-78
2022/06/28 14:43:19;;;;;;;5.55;2.63;;;;;;;;;;4993592;28;20085;-76
2022/06/28 14:45:46;;;;;;;5.45;2.45;;;;;;;;;;4993202;28;20042;-78
2022/06/28 14:48:12;;;;;;;5.25;2.60;;;;;;;;;;4992728;28;20034;-77
2022/06/28 14:50:39;;;;;;;5.18;2.20;;;;;;;;;;4996738;28;20084;-77
2022/06/28 14:53:11;;;;;;;5.00;2.53;;;;;;;;;;5011401;28;20022;-76
2022/06/28 14:55:40;;;;;;;5.30;2.22;;;;;;;;;;5012728;28;20017;-77
2022/06/28 14:58:07;;;;;;;4.05;2.00;;;;;;;;;;5012877;28;20022;-78